sensor_id;sensor_type;location;lat;lon;timestamp;temperature;humidity
1602;DHT22;794;48.592;9.634;2023-03-14T00:01:09;9.90;1.00
1602;DHT22;794;48.592;9.634;2023-03-14T00:03:37;9.90;1.00
1602;DHT22;794;48.592;9.634;2023-03-14T00:06:05;11.10;1.00
1602;DHT22;794;48.592;9.634;2023-03-14T00:08:34;9.70;1.00
1602;DHT22;794;48.592;9.634;2023-03-14T00:11:05;9.90;1.00
1602;DHT22;794;48.592;9.634;2023-03-14T00:13:32;9.90;1.00
1602;DHT22;794;48.592;9.634;2023-03-14T00:16:03;9.80;1.00
1602;DHT22;794;48.592;9.634;2023-03-14T00:18:31;9.90;1.00
1602;DHT22;794;48.592;9.634;2023-03-14T00:20:58;9.90;1.00
1602;DHT22;794;48.592;9.634;2023-03-14T00:23:27;9.50;1.00
1602;DHT22;794;48.592;9.634;2023-03-14T00:25:58;9.60;1.00
1602;DHT22;794;48.592;9.634;2023-03-14T00:28:25;9.90;1.00
1602;DHT22;794;48.592;9.634;2023-03-14T00:30:52;9.80;1.00
1602;DHT22;794;48.592;9.634;2023-03-14T00:33:20;9.40;1.00
1602;DHT22;794;48.592;9.634;2023-03-14T00:35:53;9.70;1.00
1602;DHT22;794;48.592;9.634;2023-03-14T00:38:20;9.50;1.00
1602;DHT22;794;48.592;9.634;2023-03-14T00:40:47;9.60;1.00
1602;DHT22;794;48.592;9.634;2023-03-14T00:43:16;9.60;1.00
1602;DHT22;794;48.592;9.634;2023-03-14T00:45:43;9.10;1.00
1602;DHT22;794;48.592;9.634;2023-03-14T00:48:10;9.30;1.00
1602;DHT22;794;48.592;9.634;2023-03-14T00:50:39;9.40;1.00
1602;DHT22;794;48.592;9.634;2023-03-14T00:53:06;9.10;1.00
1602;DHT22;794;48.592;9.634;2023-03-14T00:55:36;9.30;1.00
1602;DHT22;794;48.592;9.634;2023-03-14T00:58:03;9.30;1.00
1602;DHT22;794;48.592;9.634;2023-03-14T01:00:32;9.30;1.00
1602;DHT22;794;48.592;9.634;2023-03-14T01:03:00;9.60;1.00
1602;DHT22;794;48.592;9.634;2023-03-14T01:05:27;9.10;1.00
1602;DHT22;794;48.592;9.634;2023-03-14T01:07:54;8.70;1.00
1602;DHT22;794;48.592;9.634;2023-03-14T01:10:22;8.90;1.00
1602;DHT22;794;48.592;9.634;2023-03-14T01:12:49;8.90;1.00
1602;DHT22;794;48.592;9.634;2023-03-14T01:15:17;8.80;1.00
1602;DHT22;794;48.592;9.634;2023-03-14T01:17:46;9.10;1.00
1602;DHT22;794;48.592;9.634;2023-03-14T01:20:14;8.90;1.00
1602;DHT22;794;48.592;9.634;2023-03-14T01:22:43;8.80;1.00
1602;DHT22;794;48.592;9.634;2023-03-14T01:25:12;9.90;1.00
1602;DHT22;794;48.592;9.634;2023-03-14T01:27:39;8.60;1.00
1602;DHT22;794;48.592;9.634;2023-03-14T01:30:08;8.90;1.00
1602;DHT22;794;48.592;9.634;2023-03-14T01:32:36;8.70;1.00
1602;DHT22;794;48.592;9.634;2023-03-14T01:35:05;8.70;1.00
1602;DHT22;794;48.592;9.634;2023-03-14T01:37:32;8.80;1.00
1602;DHT22;794;48.592;9.634;2023-03-14T01:39:59;8.50;1.00
1602;DHT22;794;48.592;9.634;2023-03-14T01:42:26;8.90;1.00
1602;DHT22;794;48.592;9.634;2023-03-14T01:44:56;8.80;1.00
1602;DHT22;794;48.592;9.634;2023-03-14T01:47:24;8.70;1.00
1602;DHT22;794;48.592;9.634;2023-03-14T01:49:55;8.90;1.00
1602;DHT22;794;48.592;9.634;2023-03-14T01:52:27;8.80;1.00
1602;DHT22;794;48.592;9.634;2023-03-14T01:55:00;8.80;1.00
1602;DHT22;794;48.592;9.634;2023-03-14T01:57:32;9.00;1.00
1602;DHT22;794;48.592;9.634;2023-03-14T02:00:04;9.00;1.00
1602;DHT22;794;48.592;9.634;2023-03-14T02:02:37;9.20;1.00
1602;DHT22;794;48.592;9.634;2023-03-14T02:05:21;9.00;1.00
1602;DHT22;794;48.592;9.634;2023-03-14T02:07:52;9.30;1.00
1602;DHT22;794;48.592;9.634;2023-03-14T02:10:23;8.80;1.00
1602;DHT22;794;48.592;9.634;2023-03-14T02:12:52;9.00;1.00
1602;DHT22;794;48.592;9.634;2023-03-14T02:15:20;9.20;1.00
1602;DHT22;794;48.592;9.634;2023-03-14T02:17:48;8.80;1.00
1602;DHT22;794;48.592;9.634;2023-03-14T02:20:25;8.50;1.00
1602;DHT22;794;48.592;9.634;2023-03-14T02:22:56;8.80;1.00
1602;DHT22;794;48.592;9.634;2023-03-14T02:25:29;8.90;1.00
1602;DHT22;794;48.592;9.634;2023-03-14T02:28:00;8.70;1.00
1602;DHT22;794;48.592;9.634;2023-03-14T02:30:30;8.80;1.00
1602;DHT22;794;48.592;9.634;2023-03-14T02:32:59;8.90;1.00
1602;DHT22;794;48.592;9.634;2023-03-14T02:35:32;8.80;1.00
1602;DHT22;794;48.592;9.634;2023-03-14T02:38:05;7.10;1.00
1602;DHT22;794;48.592;9.634;2023-03-14T02:40:35;8.90;1.00
1602;DHT22;794;48.592;9.634;2023-03-14T02:43:04;8.70;1.00
1602;DHT22;794;48.592;9.634;2023-03-14T02:45:38;8.70;1.00
1602;DHT22;794;48.592;9.634;2023-03-14T02:48:09;8.80;1.00
1602;DHT22;794;48.592;9.634;2023-03-14T02:50:37;9.00;1.00
1602;DHT22;794;48.592;9.634;2023-03-14T02:53:05;9.00;1.00
1602;DHT22;794;48.592;9.634;2023-03-14T02:55:33;9.10;1.00
1602;DHT22;794;48.592;9.634;2023-03-14T02:58:00;8.90;1.00
1602;DHT22;794;48.592;9.634;2023-03-14T03:00:28;9.10;1.00
1602;DHT22;794;48.592;9.634;2023-03-14T03:02:56;9.30;1.00
1602;DHT22;794;48.592;9.634;2023-03-14T03:05:23;8.70;1.00
1602;DHT22;794;48.592;9.634;2023-03-14T03:07:51;8.80;1.00
1602;DHT22;794;48.592;9.634;2023-03-14T03:10:18;8.90;1.00
1602;DHT22;794;48.592;9.634;2023-03-14T03:12:45;8.90;1.00
1602;DHT22;794;48.592;9.634;2023-03-14T03:15:12;8.80;1.00
1602;DHT22;794;48.592;9.634;2023-03-14T03:17:41;8.70;1.00
1602;DHT22;794;48.592;9.634;2023-03-14T03:20:09;9.20;1.00
1602;DHT22;794;48.592;9.634;2023-03-14T03:22:38;8.60;1.00
1602;DHT22;794;48.592;9.634;2023-03-14T03:25:06;9.00;1.00
1602;DHT22;794;48.592;9.634;2023-03-14T03:27:35;8.80;1.00
1602;DHT22;794;48.592;9.634;2023-03-14T03:30:04;6.90;1.00
1602;DHT22;794;48.592;9.634;2023-03-14T03:32:32;9.00;1.00
1602;DHT22;794;48.592;9.634;2023-03-14T03:35:01;8.90;1.00
1602;DHT22;794;48.592;9.634;2023-03-14T03:37:30;8.80;1.00
1602;DHT22;794;48.592;9.634;2023-03-14T03:39:57;9.30;1.00
1602;DHT22;794;48.592;9.634;2023-03-14T03:42:26;8.70;1.00
1602;DHT22;794;48.592;9.634;2023-03-14T03:44:53;9.20;1.00
1602;DHT22;794;48.592;9.634;2023-03-14T03:47:20;8.90;1.00
1602;DHT22;794;48.592;9.634;2023-03-14T03:49:47;9.10;1.00
1602;DHT22;794;48.592;9.634;2023-03-14T03:52:16;8.90;1.00
1602;DHT22;794;48.592;9.634;2023-03-14T03:54:43;8.90;1.00
1602;DHT22;794;48.592;9.634;2023-03-14T03:57:11;8.90;1.00
1602;DHT22;794;48.592;9.634;2023-03-14T03:59:38;8.70;1.00
1602;DHT22;794;48.592;9.634;2023-03-14T04:02:06;8.70;1.00
1602;DHT22;794;48.592;9.634;2023-03-14T04:04:33;8.60;1.00
1602;DHT22;794;48.592;9.634;2023-03-14T04:07:00;8.70;1.00
1602;DHT22;794;48.592;9.634;2023-03-14T04:09:29;9.10;1.00
1602;DHT22;794;48.592;9.634;2023-03-14T04:11:56;8.90;1.00
1602;DHT22;794;48.592;9.634;2023-03-14T04:14:23;8.80;1.00
1602;DHT22;794;48.592;9.634;2023-03-14T04:16:51;8.50;1.00
1602;DHT22;794;48.592;9.634;2023-03-14T04:19:18;8.50;1.00
1602;DHT22;794;48.592;9.634;2023-03-14T04:21:45;8.40;1.00
1602;DHT22;794;48.592;9.634;2023-03-14T04:24:12;8.40;1.00
1602;DHT22;794;48.592;9.634;2023-03-14T04:26:41;8.40;1.00
1602;DHT22;794;48.592;9.634;2023-03-14T04:29:08;8.60;1.00
1602;DHT22;794;48.592;9.634;2023-03-14T04:31:35;8.60;1.00
1602;DHT22;794;48.592;9.634;2023-03-14T04:34:02;8.80;1.00
1602;DHT22;794;48.592;9.634;2023-03-14T04:36:30;8.40;1.00
1602;DHT22;794;48.592;9.634;2023-03-14T04:38:57;8.60;1.00
1602;DHT22;794;48.592;9.634;2023-03-14T04:41:24;8.90;1.00
1602;DHT22;794;48.592;9.634;2023-03-14T04:43:53;8.60;1.00
1602;DHT22;794;48.592;9.634;2023-03-14T04:46:20;8.80;1.00
1602;DHT22;794;48.592;9.634;2023-03-14T04:48:47;8.80;1.00
1602;DHT22;794;48.592;9.634;2023-03-14T04:51:14;8.70;1.00
1602;DHT22;794;48.592;9.634;2023-03-14T04:53:41;8.60;1.00
1602;DHT22;794;48.592;9.634;2023-03-14T04:56:09;8.70;1.00
1602;DHT22;794;48.592;9.634;2023-03-14T04:58:38;8.90;1.00
1602;DHT22;794;48.592;9.634;2023-03-14T05:01:07;8.70;1.00
1602;DHT22;794;48.592;9.634;2023-03-14T05:03:34;8.80;1.00
1602;DHT22;794;48.592;9.634;2023-03-14T05:06:04;8.60;1.00
1602;DHT22;794;48.592;9.634;2023-03-14T05:08:31;8.60;1.00
1602;DHT22;794;48.592;9.634;2023-03-14T05:10:58;8.20;1.00
1602;DHT22;794;48.592;9.634;2023-03-14T05:13:26;8.50;1.00
1602;DHT22;794;48.592;9.634;2023-03-14T05:15:53;8.80;1.00
1602;DHT22;794;48.592;9.634;2023-03-14T05:18:22;8.60;1.00
1602;DHT22;794;48.592;9.634;2023-03-14T05:20:50;8.40;1.00
1602;DHT22;794;48.592;9.634;2023-03-14T05:23:17;8.00;1.00
1602;DHT22;794;48.592;9.634;2023-03-14T05:25:45;8.40;1.00
1602;DHT22;794;48.592;9.634;2023-03-14T05:28:12;8.50;1.00
1602;DHT22;794;48.592;9.634;2023-03-14T05:30:39;8.70;1.00
1602;DHT22;794;48.592;9.634;2023-03-14T05:33:06;8.40;1.00
1602;DHT22;794;48.592;9.634;2023-03-14T05:35:34;8.30;1.00
1602;DHT22;794;48.592;9.634;2023-03-14T05:38:02;8.40;1.00
1602;DHT22;794;48.592;9.634;2023-03-14T05:40:29;8.30;1.00
1602;DHT22;794;48.592;9.634;2023-03-14T05:42:56;8.20;1.00
1602;DHT22;794;48.592;9.634;2023-03-14T05:45:23;8.30;1.00
1602;DHT22;794;48.592;9.634;2023-03-14T05:47:51;8.40;1.00
1602;DHT22;794;48.592;9.634;2023-03-14T05:50:18;8.20;1.00
1602;DHT22;794;48.592;9.634;2023-03-14T05:52:46;8.20;1.00
1602;DHT22;794;48.592;9.634;2023-03-14T05:55:14;8.30;1.00
1602;DHT22;794;48.592;9.634;2023-03-14T05:57:41;9.00;1.00
1602;DHT22;794;48.592;9.634;2023-03-14T06:00:10;8.70;1.00
1602;DHT22;794;48.592;9.634;2023-03-14T06:02:37;8.50;1.00
1602;DHT22;794;48.592;9.634;2023-03-14T06:05:05;8.70;1.00
1602;DHT22;794;48.592;9.634;2023-03-14T06:07:32;8.20;1.00
1602;DHT22;794;48.592;9.634;2023-03-14T06:10:01;8.30;1.00
1602;DHT22;794;48.592;9.634;2023-03-14T06:14:56;8.40;1.00
1602;DHT22;794;48.592;9.634;2023-03-14T06:17:23;8.10;1.00
1602;DHT22;794;48.592;9.634;2023-03-14T06:19:51;8.20;1.00
1602;DHT22;794;48.592;9.634;2023-03-14T06:22:18;8.20;1.00
1602;DHT22;794;48.592;9.634;2023-03-14T06:27:14;8.30;1.00
1602;DHT22;794;48.592;9.634;2023-03-14T06:29:41;8.50;1.00
1602;DHT22;794;48.592;9.634;2023-03-14T06:34:36;8.60;1.00
1602;DHT22;794;48.592;9.634;2023-03-14T06:37:04;8.90;1.00
1602;DHT22;794;48.592;9.634;2023-03-14T06:39:31;9.20;1.00
1602;DHT22;794;48.592;9.634;2023-03-14T06:41:58;8.70;1.00
1602;DHT22;794;48.592;9.634;2023-03-14T06:44:27;9.00;1.00
1602;DHT22;794;48.592;9.634;2023-03-14T06:49:22;8.80;1.00
1602;DHT22;794;48.592;9.634;2023-03-14T06:51:49;8.80;1.00
1602;DHT22;794;48.592;9.634;2023-03-14T06:54:16;8.20;1.00
1602;DHT22;794;48.592;9.634;2023-03-14T06:56:43;9.10;1.00
1602;DHT22;794;48.592;9.634;2023-03-14T06:59:11;9.30;1.00
1602;DHT22;794;48.592;9.634;2023-03-14T07:01:39;9.20;1.00
1602;DHT22;794;48.592;9.634;2023-03-14T07:04:07;9.10;1.00
1602;DHT22;794;48.592;9.634;2023-03-14T07:06:35;9.10;1.00
1602;DHT22;794;48.592;9.634;2023-03-14T07:09:02;8.90;1.00
1602;DHT22;794;48.592;9.634;2023-03-14T07:11:29;9.10;1.00
1602;DHT22;794;48.592;9.634;2023-03-14T07:13:56;9.00;1.00
1602;DHT22;794;48.592;9.634;2023-03-14T07:16:24;8.90;1.00
1602;DHT22;794;48.592;9.634;2023-03-14T07:18:55;9.00;1.00
1602;DHT22;794;48.592;9.634;2023-03-14T07:21:23;9.30;1.00
1602;DHT22;794;48.592;9.634;2023-03-14T07:23:50;9.10;1.00
1602;DHT22;794;48.592;9.634;2023-03-14T07:26:17;9.60;1.00
1602;DHT22;794;48.592;9.634;2023-03-14T07:28:44;9.50;1.00
1602;DHT22;794;48.592;9.634;2023-03-14T07:31:11;9.70;1.00
1602;DHT22;794;48.592;9.634;2023-03-14T07:33:39;9.70;1.00
1602;DHT22;794;48.592;9.634;2023-03-14T07:36:08;9.90;1.00
1602;DHT22;794;48.592;9.634;2023-03-14T07:38:36;9.70;1.00
1602;DHT22;794;48.592;9.634;2023-03-14T07:41:05;9.70;1.00
1602;DHT22;794;48.592;9.634;2023-03-14T07:43:32;9.80;1.00
1602;DHT22;794;48.592;9.634;2023-03-14T07:45:59;10.10;1.00
1602;DHT22;794;48.592;9.634;2023-03-14T07:48:27;9.80;1.00
1602;DHT22;794;48.592;9.634;2023-03-14T07:50:55;9.40;1.00
1602;DHT22;794;48.592;9.634;2023-03-14T07:53:24;9.60;1.00
1602;DHT22;794;48.592;9.634;2023-03-14T07:55:52;10.30;1.00
1602;DHT22;794;48.592;9.634;2023-03-14T07:58:20;10.60;1.00
1602;DHT22;794;48.592;9.634;2023-03-14T08:05:43;11.70;1.00
1602;DHT22;794;48.592;9.634;2023-03-14T08:08:11;12.50;1.00
1602;DHT22;794;48.592;9.634;2023-03-14T08:10:43;13.60;1.00
1602;DHT22;794;48.592;9.634;2023-03-14T08:13:10;16.20;1.00
1602;DHT22;794;48.592;9.634;2023-03-14T08:15:39;17.80;1.00
1602;DHT22;794;48.592;9.634;2023-03-14T08:18:06;18.00;1.00
1602;DHT22;794;48.592;9.634;2023-03-14T08:20:35;18.00;1.00
1602;DHT22;794;48.592;9.634;2023-03-14T08:25:30;16.10;1.00
1602;DHT22;794;48.592;9.634;2023-03-14T08:27:59;16.60;1.00
1602;DHT22;794;48.592;9.634;2023-03-14T08:30:26;18.30;1.00
1602;DHT22;794;48.592;9.634;2023-03-14T08:32:53;19.00;1.00
1602;DHT22;794;48.592;9.634;2023-03-14T08:40:18;19.90;1.00
1602;DHT22;794;48.592;9.634;2023-03-14T08:42:45;19.90;1.00
1602;DHT22;794;48.592;9.634;2023-03-14T08:45:15;19.60;1.00
1602;DHT22;794;48.592;9.634;2023-03-14T08:47:48;18.50;1.00
1602;DHT22;794;48.592;9.634;2023-03-14T08:50:15;17.30;1.00
1602;DHT22;794;48.592;9.634;2023-03-14T08:52:42;16.20;1.00
1602;DHT22;794;48.592;9.634;2023-03-14T08:55:10;16.00;1.00
1602;DHT22;794;48.592;9.634;2023-03-14T08:57:37;15.30;1.00
1602;DHT22;794;48.592;9.634;2023-03-14T09:00:05;14.70;1.00
1602;DHT22;794;48.592;9.634;2023-03-14T09:02:37;14.20;1.00
1602;DHT22;794;48.592;9.634;2023-03-14T09:05:05;14.00;1.00
1602;DHT22;794;48.592;9.634;2023-03-14T09:07:33;14.10;1.00
1602;DHT22;794;48.592;9.634;2023-03-14T09:10:00;13.60;1.00
1602;DHT22;794;48.592;9.634;2023-03-14T09:12:27;13.30;1.00
1602;DHT22;794;48.592;9.634;2023-03-14T09:14:55;13.10;1.00
1602;DHT22;794;48.592;9.634;2023-03-14T09:17:22;13.10;1.00
1602;DHT22;794;48.592;9.634;2023-03-14T09:19:50;12.60;1.00
1602;DHT22;794;48.592;9.634;2023-03-14T09:22:18;12.30;1.00
1602;DHT22;794;48.592;9.634;2023-03-14T09:24:46;12.40;1.00
1602;DHT22;794;48.592;9.634;2023-03-14T09:27:13;12.20;1.00
1602;DHT22;794;48.592;9.634;2023-03-14T09:29:40;12.60;1.00
1602;DHT22;794;48.592;9.634;2023-03-14T09:32:07;12.90;1.00
1602;DHT22;794;48.592;9.634;2023-03-14T09:34:35;14.00;1.00
1602;DHT22;794;48.592;9.634;2023-03-14T09:37:04;13.90;1.00
1602;DHT22;794;48.592;9.634;2023-03-14T09:39:31;14.70;1.00
1602;DHT22;794;48.592;9.634;2023-03-14T09:42:02;14.50;1.00
1602;DHT22;794;48.592;9.634;2023-03-14T09:44:33;14.40;1.00
1602;DHT22;794;48.592;9.634;2023-03-14T09:47:05;14.00;1.00
1602;DHT22;794;48.592;9.634;2023-03-14T09:49:35;13.70;1.00
1602;DHT22;794;48.592;9.634;2023-03-14T09:52:10;13.60;1.00
1602;DHT22;794;48.592;9.634;2023-03-14T09:54:42;14.10;1.00
1602;DHT22;794;48.592;9.634;2023-03-14T09:57:13;14.00;1.00
1602;DHT22;794;48.592;9.634;2023-03-14T09:59:43;13.50;1.00
1602;DHT22;794;48.592;9.634;2023-03-14T10:02:16;13.80;1.00
1602;DHT22;794;48.592;9.634;2023-03-14T10:04:45;14.00;1.00
1602;DHT22;794;48.592;9.634;2023-03-14T10:07:16;13.90;1.00
1602;DHT22;794;48.592;9.634;2023-03-14T10:09:46;13.90;1.00
1602;DHT22;794;48.592;9.634;2023-03-14T10:12:14;14.20;1.00
1602;DHT22;794;48.592;9.634;2023-03-14T10:14:48;14.00;1.00
1602;DHT22;794;48.592;9.634;2023-03-14T10:17:17;14.30;1.00
1602;DHT22;794;48.592;9.634;2023-03-14T10:19:52;15.40;1.00
1602;DHT22;794;48.592;9.634;2023-03-14T10:22:22;15.10;1.00
1602;DHT22;794;48.592;9.634;2023-03-14T10:24:53;14.80;1.00
1602;DHT22;794;48.592;9.634;2023-03-14T10:27:27;14.10;1.00
1602;DHT22;794;48.592;9.634;2023-03-14T10:29:56;14.10;1.00
1602;DHT22;794;48.592;9.634;2023-03-14T10:32:31;13.70;1.00
1602;DHT22;794;48.592;9.634;2023-03-14T10:35:21;13.00;1.00
1602;DHT22;794;48.592;9.634;2023-03-14T10:37:52;12.60;1.00
1602;DHT22;794;48.592;9.634;2023-03-14T10:40:24;12.40;1.00
1602;DHT22;794;48.592;9.634;2023-03-14T10:42:52;12.30;1.00
1602;DHT22;794;48.592;9.634;2023-03-14T10:45:36;12.50;1.00
1602;DHT22;794;48.592;9.634;2023-03-14T10:48:19;12.20;1.00
1602;DHT22;794;48.592;9.634;2023-03-14T10:50:54;12.10;1.00
1602;DHT22;794;48.592;9.634;2023-03-14T10:53:24;12.70;1.00
1602;DHT22;794;48.592;9.634;2023-03-14T10:55:51;13.20;1.00
1602;DHT22;794;48.592;9.634;2023-03-14T10:58:20;13.20;1.00
1602;DHT22;794;48.592;9.634;2023-03-14T11:00:52;13.60;1.00
1602;DHT22;794;48.592;9.634;2023-03-14T11:03:21;13.70;1.00
1602;DHT22;794;48.592;9.634;2023-03-14T11:05:53;13.70;1.00
1602;DHT22;794;48.592;9.634;2023-03-14T11:08:27;14.70;1.00
1602;DHT22;794;48.592;9.634;2023-03-14T11:11:16;14.20;1.00
1602;DHT22;794;48.592;9.634;2023-03-14T11:13:54;14.00;1.00
1602;DHT22;794;48.592;9.634;2023-03-14T11:16:28;13.70;1.00
1602;DHT22;794;48.592;9.634;2023-03-14T11:19:17;13.90;1.00
1602;DHT22;794;48.592;9.634;2023-03-14T11:21:53;13.90;1.00
1602;DHT22;794;48.592;9.634;2023-03-14T11:24:37;13.80;1.00
1602;DHT22;794;48.592;9.634;2023-03-14T11:27:13;14.00;1.00
1602;DHT22;794;48.592;9.634;2023-03-14T11:29:49;13.80;1.00
1602;DHT22;794;48.592;9.634;2023-03-14T11:32:34;13.70;1.00
1602;DHT22;794;48.592;9.634;2023-03-14T11:35:07;13.40;1.00
1602;DHT22;794;48.592;9.634;2023-03-14T11:37:46;13.50;1.00
1602;DHT22;794;48.592;9.634;2023-03-14T11:40:18;13.00;1.00
1602;DHT22;794;48.592;9.634;2023-03-14T11:42:49;12.50;1.00
1602;DHT22;794;48.592;9.634;2023-03-14T11:45:29;12.60;1.00
1602;DHT22;794;48.592;9.634;2023-03-14T11:48:07;12.20;1.00
1602;DHT22;794;48.592;9.634;2023-03-14T11:50:39;12.20;1.00
1602;DHT22;794;48.592;9.634;2023-03-14T11:53:11;12.00;1.00
1602;DHT22;794;48.592;9.634;2023-03-14T11:55:42;11.90;1.00
1602;DHT22;794;48.592;9.634;2023-03-14T11:58:15;11.70;1.00
1602;DHT22;794;48.592;9.634;2023-03-14T12:00:44;11.60;1.00
1602;DHT22;794;48.592;9.634;2023-03-14T12:03:17;11.30;1.00
1602;DHT22;794;48.592;9.634;2023-03-14T12:05:54;11.50;1.00
1602;DHT22;794;48.592;9.634;2023-03-14T12:08:47;12.10;1.00
1602;DHT22;794;48.592;9.634;2023-03-14T12:11:27;11.70;1.00
1602;DHT22;794;48.592;9.634;2023-03-14T12:13:55;11.60;1.00
1602;DHT22;794;48.592;9.634;2023-03-14T12:16:37;11.30;1.00
1602;DHT22;794;48.592;9.634;2023-03-14T12:19:25;11.00;1.00
1602;DHT22;794;48.592;9.634;2023-03-14T12:21:57;11.10;1.00
1602;DHT22;794;48.592;9.634;2023-03-14T12:24:27;10.70;1.00
1602;DHT22;794;48.592;9.634;2023-03-14T12:26:57;10.90;1.00
1602;DHT22;794;48.592;9.634;2023-03-14T12:29:25;11.10;1.00
1602;DHT22;794;48.592;9.634;2023-03-14T12:32:21;10.50;1.00
1602;DHT22;794;48.592;9.634;2023-03-14T12:34:49;10.90;1.00
1602;DHT22;794;48.592;9.634;2023-03-14T12:37:36;10.80;1.00
1602;DHT22;794;48.592;9.634;2023-03-14T12:40:13;10.60;1.00
1602;DHT22;794;48.592;9.634;2023-03-14T12:42:57;10.70;1.00
1602;DHT22;794;48.592;9.634;2023-03-14T12:45:27;10.70;1.00
1602;DHT22;794;48.592;9.634;2023-03-14T12:48:09;10.70;1.00
1602;DHT22;794;48.592;9.634;2023-03-14T12:50:45;10.40;1.00
1602;DHT22;794;48.592;9.634;2023-03-14T12:56:23;9.90;1.00
1602;DHT22;794;48.592;9.634;2023-03-14T12:59:09;9.90;1.00
1602;DHT22;794;48.592;9.634;2023-03-14T13:01:47;9.70;1.00
1602;DHT22;794;48.592;9.634;2023-03-14T13:04:15;9.80;1.00
1602;DHT22;794;48.592;9.634;2023-03-14T13:06:52;10.10;1.00
1602;DHT22;794;48.592;9.634;2023-03-14T13:09:45;10.10;1.00
1602;DHT22;794;48.592;9.634;2023-03-14T13:12:18;10.40;1.00
1602;DHT22;794;48.592;9.634;2023-03-14T13:14:51;10.40;1.00
1602;DHT22;794;48.592;9.634;2023-03-14T13:17:26;9.50;1.00
1602;DHT22;794;48.592;9.634;2023-03-14T13:19:56;9.70;1.00
1602;DHT22;794;48.592;9.634;2023-03-14T13:22:26;9.80;1.00
1602;DHT22;794;48.592;9.634;2023-03-14T13:25:01;10.50;1.00
1602;DHT22;794;48.592;9.634;2023-03-14T13:27:31;10.30;1.00
1602;DHT22;794;48.592;9.634;2023-03-14T13:30:05;10.50;1.00
1602;DHT22;794;48.592;9.634;2023-03-14T13:32:42;10.90;1.00
1602;DHT22;794;48.592;9.634;2023-03-14T13:35:16;10.30;1.00
1602;DHT22;794;48.592;9.634;2023-03-14T13:37:43;9.80;1.00
1602;DHT22;794;48.592;9.634;2023-03-14T13:40:23;9.90;1.00
1602;DHT22;794;48.592;9.634;2023-03-14T13:43:01;9.90;1.00
1602;DHT22;794;48.592;9.634;2023-03-14T13:45:30;9.60;1.00
1602;DHT22;794;48.592;9.634;2023-03-14T13:50:28;9.20;1.00
1602;DHT22;794;48.592;9.634;2023-03-14T13:52:59;9.40;1.00
1602;DHT22;794;48.592;9.634;2023-03-14T13:55:29;9.70;1.00
1602;DHT22;794;48.592;9.634;2023-03-14T13:57:57;9.10;1.00
1602;DHT22;794;48.592;9.634;2023-03-14T14:00:26;8.90;1.00
1602;DHT22;794;48.592;9.634;2023-03-14T14:02:57;8.80;1.00
1602;DHT22;794;48.592;9.634;2023-03-14T14:05:27;8.50;1.00
1602;DHT22;794;48.592;9.634;2023-03-14T14:07:55;8.40;1.00
1602;DHT22;794;48.592;9.634;2023-03-14T14:10:23;8.50;1.00
1602;DHT22;794;48.592;9.634;2023-03-14T14:12:53;8.60;1.00
1602;DHT22;794;48.592;9.634;2023-03-14T14:15:26;8.70;1.00
1602;DHT22;794;48.592;9.634;2023-03-14T14:17:57;8.90;1.00
1602;DHT22;794;48.592;9.634;2023-03-14T14:20:29;8.20;1.00
1602;DHT22;794;48.592;9.634;2023-03-14T14:23:01;8.30;1.00
1602;DHT22;794;48.592;9.634;2023-03-14T14:25:30;8.30;1.00
1602;DHT22;794;48.592;9.634;2023-03-14T14:30:29;8.20;1.00
1602;DHT22;794;48.592;9.634;2023-03-14T14:33:17;8.30;1.00
1602;DHT22;794;48.592;9.634;2023-03-14T14:35:52;8.30;1.00
1602;DHT22;794;48.592;9.634;2023-03-14T14:40:50;8.30;1.00
1602;DHT22;794;48.592;9.634;2023-03-14T14:43:21;8.50;1.00
1602;DHT22;794;48.592;9.634;2023-03-14T14:45:50;8.70;1.00
1602;DHT22;794;48.592;9.634;2023-03-14T14:48:24;8.70;1.00
1602;DHT22;794;48.592;9.634;2023-03-14T14:50:59;8.60;1.00
1602;DHT22;794;48.592;9.634;2023-03-14T14:53:29;8.60;1.00
1602;DHT22;794;48.592;9.634;2023-03-14T14:55:58;8.30;1.00
1602;DHT22;794;48.592;9.634;2023-03-14T14:58:28;8.30;1.00
1602;DHT22;794;48.592;9.634;2023-03-14T15:00:59;8.10;1.00
1602;DHT22;794;48.592;9.634;2023-03-14T15:03:32;8.30;1.00
1602;DHT22;794;48.592;9.634;2023-03-14T15:06:01;8.30;1.00
1602;DHT22;794;48.592;9.634;2023-03-14T15:10:57;7.80;1.00
1602;DHT22;794;48.592;9.634;2023-03-14T15:18:22;7.70;1.00
1602;DHT22;794;48.592;9.634;2023-03-14T15:20:51;7.60;1.00
1602;DHT22;794;48.592;9.634;2023-03-14T15:23:22;7.60;1.00
1602;DHT22;794;48.592;9.634;2023-03-14T15:28:19;7.50;1.00
1602;DHT22;794;48.592;9.634;2023-03-14T15:30:48;7.70;1.00
1602;DHT22;794;48.592;9.634;2023-03-14T15:38:13;8.00;1.00
1602;DHT22;794;48.592;9.634;2023-03-14T15:40:42;8.00;1.00
1602;DHT22;794;48.592;9.634;2023-03-14T15:48:05;8.20;1.00
1602;DHT22;794;48.592;9.634;2023-03-14T15:55:29;8.30;1.00
1602;DHT22;794;48.592;9.634;2023-03-14T15:57:57;8.20;1.00
1602;DHT22;794;48.592;9.634;2023-03-14T16:02:52;8.50;1.00
1602;DHT22;794;48.592;9.634;2023-03-14T16:07:47;8.40;1.00
1602;DHT22;794;48.592;9.634;2023-03-14T16:10:16;8.20;1.00
1602;DHT22;794;48.592;9.634;2023-03-14T16:12:44;8.40;1.00
1602;DHT22;794;48.592;9.634;2023-03-14T16:20:09;7.40;1.00
1602;DHT22;794;48.592;9.634;2023-03-14T16:25:06;7.40;1.00
1602;DHT22;794;48.592;9.634;2023-03-14T16:27:35;7.20;1.00
1602;DHT22;794;48.592;9.634;2023-03-14T16:30:10;8.00;1.00
1602;DHT22;794;48.592;9.634;2023-03-14T16:35:07;7.40;1.00
1602;DHT22;794;48.592;9.634;2023-03-14T16:47:27;7.50;1.00
1602;DHT22;794;48.592;9.634;2023-03-14T16:52:24;7.40;1.00
1602;DHT22;794;48.592;9.634;2023-03-14T17:04:44;7.20;1.00
1602;DHT22;794;48.592;9.634;2023-03-14T17:12:07;7.00;1.00
1602;DHT22;794;48.592;9.634;2023-03-14T17:22:01;7.00;1.00
1602;DHT22;794;48.592;9.634;2023-03-14T17:39:14;7.00;1.00
1602;DHT22;794;48.592;9.634;2023-03-14T17:56:28;7.00;1.00
1602;DHT22;794;48.592;9.634;2023-03-14T17:58:56;6.90;1.00
1602;DHT22;794;48.592;9.634;2023-03-14T18:01:23;6.70;1.00
1602;DHT22;794;48.592;9.634;2023-03-14T18:06:21;6.50;1.00
1602;DHT22;794;48.592;9.634;2023-03-14T18:13:46;6.20;1.00
1602;DHT22;794;48.592;9.634;2023-03-14T18:18:42;6.10;1.00
1602;DHT22;794;48.592;9.634;2023-03-14T18:26:05;6.20;1.00
1602;DHT22;794;48.592;9.634;2023-03-14T18:31:05;6.30;1.00
1602;DHT22;794;48.592;9.634;2023-03-14T18:36:03;6.10;1.00
1602;DHT22;794;48.592;9.634;2023-03-14T18:41:03;6.10;1.00
1602;DHT22;794;48.592;9.634;2023-03-14T18:48:28;6.00;1.00
1602;DHT22;794;48.592;9.634;2023-03-14T18:50:56;6.10;1.00
1602;DHT22;794;48.592;9.634;2023-03-14T18:55:56;6.00;1.00
1602;DHT22;794;48.592;9.634;2023-03-14T19:00:55;5.40;1.00
1602;DHT22;794;48.592;9.634;2023-03-14T19:05:54;5.60;1.00
1602;DHT22;794;48.592;9.634;2023-03-14T19:08:24;5.40;1.00
1602;DHT22;794;48.592;9.634;2023-03-14T19:10:53;5.90;1.00
1602;DHT22;794;48.592;9.634;2023-03-14T19:13:21;5.20;1.00
1602;DHT22;794;48.592;9.634;2023-03-14T19:15:51;5.40;1.00
1602;DHT22;794;48.592;9.634;2023-03-14T19:20:56;5.10;1.00
1602;DHT22;794;48.592;9.634;2023-03-14T19:23:25;4.90;1.00
1602;DHT22;794;48.592;9.634;2023-03-14T19:25:52;5.40;1.00
1602;DHT22;794;48.592;9.634;2023-03-14T19:28:23;5.00;1.00
1602;DHT22;794;48.592;9.634;2023-03-14T19:30:51;4.90;1.00
1602;DHT22;794;48.592;9.634;2023-03-14T19:35:49;4.70;1.00
1602;DHT22;794;48.592;9.634;2023-03-14T19:38:18;7.70;1.00
1602;DHT22;794;48.592;9.634;2023-03-14T19:43:15;4.70;1.00
1602;DHT22;794;48.592;9.634;2023-03-14T19:55:35;5.30;1.00
1602;DHT22;794;48.592;9.634;2023-03-14T20:12:51;5.30;1.00
1602;DHT22;794;48.592;9.634;2023-03-14T20:17:48;5.50;1.00
1602;DHT22;794;48.592;9.634;2023-03-14T20:20:16;5.40;1.00
1602;DHT22;794;48.592;9.634;2023-03-14T20:25:13;5.30;1.00
1602;DHT22;794;48.592;9.634;2023-03-14T20:27:44;5.60;1.00
1602;DHT22;794;48.592;9.634;2023-03-14T20:30:15;5.60;1.00
1602;DHT22;794;48.592;9.634;2023-03-14T20:32:43;5.30;1.00